Time;durP1;ratioP1;P1;durP2;ratioP2;P2;SDS_P1;SDS_P2;PMS_P1;PMS_P2;Temp;Humidity;BMP_temperature;BMP_pressure;BME280_temperature;BME280_humidity;BME280_pressure;Samples;Min_cycle;Max_cycle;Signal;HPM_P1;HPM_P2
2021/01/19 00:01:08;;;;;;;58.63;25.77;;;;;;;;;;734302;188;918884;-69
2021/01/19 00:03:34;;;;;;;46.97;22.53;;;;;;;;;;733979;188;917400;-70
2021/01/19 00:06:00;;;;;;;49.47;25.07;;;;;;;;;;740382;188;919254;-69
2021/01/19 00:08:26;;;;;;;52.60;23.27;;;;;;;;;;730836;188;919704;-69
2021/01/19 00:10:52;;;;;;;48.40;25.67;;;;;;;;;;730922;188;1021363;-69
2021/01/19 00:13:20;;;;;;;39.03;21.77;;;;;;;;;;741671;188;919258;-70
2021/01/19 00:15:46;;;;;;;51.37;24.27;;;;;;;;;;735358;190;636232;-70
2021/01/19 00:18:12;;;;;;;64.27;24.87;;;;;;;;;;731574;188;627552;-69
2021/01/19 00:20:37;;;;;;;51.67;24.83;;;;;;;;;;732554;188;919021;-69
2021/01/19 00:23:03;;;;;;;47.67;22.00;;;;;;;;;;739284;188;919041;-69
2021/01/19 00:25:29;;;;;;;45.30;23.12;;;;;;;;;;732079;188;918285;-70
2021/01/19 00:27:55;;;;;;;54.83;22.80;;;;;;;;;;734547;188;919023;-69
2021/01/19 00:30:21;;;;;;;45.90;22.40;;;;;;;;;;736628;190;914687;-70
2021/01/19 00:32:47;;;;;;;55.90;23.83;;;;;;;;;;735120;188;919574;-69
2021/01/19 00:35:13;;;;;;;57.63;26.97;;;;;;;;;;734791;187;955020;-69
2021/01/19 00:37:38;;;;;;;53.23;23.57;;;;;;;;;;740052;189;918805;-70
2021/01/19 00:40:05;;;;;;;42.93;23.17;;;;;;;;;;734692;188;918624;-69
2021/01/19 00:42:31;;;;;;;58.33;26.70;;;;;;;;;;740685;188;918660;-71
2021/01/19 00:44:56;;;;;;;56.92;25.25;;;;;;;;;;734240;188;954781;-69
2021/01/19 00:47:22;;;;;;;68.77;24.33;;;;;;;;;;737904;188;918629;-69
2021/01/19 00:49:48;;;;;;;44.90;23.67;;;;;;;;;;734868;188;922385;-69
2021/01/19 00:52:14;;;;;;;50.30;23.47;;;;;;;;;;733457;189;919312;-70
2021/01/19 00:54:40;;;;;;;52.25;24.20;;;;;;;;;;738785;188;918982;-69
2021/01/19 00:57:06;;;;;;;54.10;22.83;;;;;;;;;;730035;188;918950;-69
2021/01/19 00:59:31;;;;;;;43.70;24.23;;;;;;;;;;736761;188;918830;-70
2021/01/19 01:01:57;;;;;;;49.57;24.00;;;;;;;;;;737605;189;919138;-70
2021/01/19 01:04:23;;;;;;;55.67;23.20;;;;;;;;;;735462;188;919028;-70
2021/01/19 01:06:52;;;;;;;58.37;25.80;;;;;;;;;;733267;188;917764;-69
2021/01/19 01:09:18;;;;;;;56.70;25.07;;;;;;;;;;739973;188;633327;-68
2021/01/19 01:11:44;;;;;;;54.70;23.20;;;;;;;;;;739738;188;626696;-70
2021/01/19 01:14:09;;;;;;;51.10;24.87;;;;;;;;;;738764;189;635514;-70
2021/01/19 01:16:36;;;;;;;51.90;23.20;;;;;;;;;;734323;188;624576;-70
2021/01/19 01:19:02;;;;;;;61.87;25.70;;;;;;;;;;738362;188;918129;-69
2021/01/19 01:21:28;;;;;;;52.10;22.63;;;;;;;;;;731915;188;1032492;-70
2021/01/19 01:23:54;;;;;;;64.07;25.23;;;;;;;;;;736062;188;941015;-70
2021/01/19 01:26:20;;;;;;;42.53;22.10;;;;;;;;;;732858;188;914995;-71
2021/01/19 01:28:45;;;;;;;48.13;22.97;;;;;;;;;;726465;190;1192142;-69
2021/01/19 01:31:11;;;;;;;57.33;22.80;;;;;;;;;;734952;188;915417;-70
2021/01/19 01:33:37;;;;;;;53.07;25.87;;;;;;;;;;732649;188;915632;-69
2021/01/19 01:36:03;;;;;;;48.27;24.47;;;;;;;;;;730504;191;915526;-70
2021/01/19 01:38:29;;;;;;;52.03;23.97;;;;;;;;;;730823;189;921369;-70
2021/01/19 01:40:55;;;;;;;48.30;24.25;;;;;;;;;;733701;190;918915;-70
2021/01/19 01:43:21;;;;;;;63.17;27.03;;;;;;;;;;735956;188;918145;-70
2021/01/19 01:45:47;;;;;;;47.70;22.63;;;;;;;;;;732148;187;918455;-69
2021/01/19 01:48:12;;;;;;;57.90;25.20;;;;;;;;;;738863;187;918585;-69
2021/01/19 01:50:38;;;;;;;50.40;23.47;;;;;;;;;;743721;188;617497;-70
2021/01/19 01:53:04;;;;;;;53.57;23.70;;;;;;;;;;738978;187;633757;-71
2021/01/19 01:55:30;;;;;;;55.30;25.73;;;;;;;;;;741941;188;918828;-70
2021/01/19 01:57:56;;;;;;;49.47;25.50;;;;;;;;;;744454;188;620737;-69
2021/01/19 02:00:22;;;;;;;58.33;23.87;;;;;;;;;;738681;188;918449;-69
2021/01/19 02:02:50;;;;;;;44.17;22.67;;;;;;;;;;734060;189;919061;-69
2021/01/19 02:05:16;;;;;;;52.37;23.33;;;;;;;;;;730881;188;919075;-70
2021/01/19 02:07:44;;;;;;;41.73;21.47;;;;;;;;;;737537;188;917930;-69
2021/01/19 02:10:10;;;;;;;50.33;23.83;;;;;;;;;;732170;188;918604;-70
2021/01/19 02:12:36;;;;;;;56.53;25.60;;;;;;;;;;733583;188;919359;-70
2021/01/19 02:15:02;;;;;;;46.43;23.17;;;;;;;;;;738425;188;918643;-69
2021/01/19 02:17:28;;;;;;;44.63;23.20;;;;;;;;;;737172;190;918910;-69
2021/01/19 02:20:00;;;;;;;55.78;24.77;;;;;;;;;;736939;188;918799;-70
2021/01/19 02:22:27;;;;;;;46.33;21.70;;;;;;;;;;732834;189;919226;-68
2021/01/19 02:24:59;;;;;;;47.60;23.40;;;;;;;;;;738362;188;919532;-70
2021/01/19 02:27:31;;;;;;;56.17;27.57;;;;;;;;;;736323;188;919310;-69
2021/01/19 02:30:06;;;;;;;44.37;23.10;;;;;;;;;;732071;188;918272;-70
2021/01/19 02:32:34;;;;;;;47.63;24.20;;;;;;;;;;733691;188;918741;-69
2021/01/19 02:35:00;;;;;;;54.53;28.73;;;;;;;;;;730336;188;1019260;-70
2021/01/19 02:37:27;;;;;;;55.93;24.20;;;;;;;;;;728703;190;919103;-69
2021/01/19 02:39:54;;;;;;;66.20;27.67;;;;;;;;;;735242;188;635934;-70
2021/01/19 02:42:30;;;;;;;59.00;26.97;;;;;;;;;;737345;188;616854;-70
2021/01/19 02:44:54;;;;;;;48.87;23.95;;;;;;;;;;736206;188;917868;-69
2021/01/19 02:47:20;;;;;;;52.33;26.50;;;;;;;;;;726366;190;921013;-69
2021/01/19 02:49:46;;;;;;;51.03;24.40;;;;;;;;;;729661;188;919384;-69
2021/01/19 02:52:12;;;;;;;55.60;25.20;;;;;;;;;;732016;189;1123841;-70
2021/01/19 02:54:38;;;;;;;53.40;29.00;;;;;;;;;;737788;188;918782;-70
2021/01/19 02:57:19;;;;;;;53.50;23.90;;;;;;;;;;728159;187;1539712;-70
2021/01/19 02:59:48;;;;;;;61.63;26.83;;;;;;;;;;730348;188;938499;-69
2021/01/19 03:02:16;;;;;;;51.50;27.62;;;;;;;;;;731886;187;918327;-70
2021/01/19 03:04:39;;;;;;;61.63;27.37;;;;;;;;;;738344;188;1021043;-70
2021/01/19 03:07:05;;;;;;;51.30;25.13;;;;;;;;;;733971;188;918357;-69
2021/01/19 03:09:31;;;;;;;58.83;25.17;;;;;;;;;;735252;187;933649;-70
2021/01/19 03:11:57;;;;;;;59.00;28.37;;;;;;;;;;739296;188;916268;-70
2021/01/19 03:14:23;;;;;;;50.80;25.70;;;;;;;;;;737186;188;918534;-70
2021/01/19 03:16:49;;;;;;;60.00;28.50;;;;;;;;;;732352;187;1293475;-68
2021/01/19 03:19:15;;;;;;;53.47;26.00;;;;;;;;;;733780;188;919388;-69
2021/01/19 03:21:41;;;;;;;55.53;27.43;;;;;;;;;;734579;188;918725;-70
2021/01/19 03:24:07;;;;;;;47.13;24.70;;;;;;;;;;734351;188;918095;-69
2021/01/19 03:26:33;;;;;;;59.80;25.07;;;;;;;;;;731734;188;918519;-70
2021/01/19 03:28:59;;;;;;;53.03;27.40;;;;;;;;;;742029;188;918580;-69
2021/01/19 03:31:25;;;;;;;57.63;25.30;;;;;;;;;;733148;188;999588;-69
2021/01/19 03:33:50;;;;;;;63.63;27.93;;;;;;;;;;736836;188;918930;-69
2021/01/19 03:36:16;;;;;;;59.90;27.43;;;;;;;;;;734683;188;918402;-69
2021/01/19 03:38:42;;;;;;;61.67;28.50;;;;;;;;;;732196;187;917720;-70
2021/01/19 03:41:08;;;;;;;51.93;26.07;;;;;;;;;;733223;188;919541;-69
2021/01/19 03:43:34;;;;;;;63.97;28.70;;;;;;;;;;729847;188;921859;-69
2021/01/19 03:46:00;;;;;;;64.47;28.20;;;;;;;;;;730927;189;919012;-71
2021/01/19 03:48:26;;;;;;;53.00;26.58;;;;;;;;;;724287;188;920220;-70
2021/01/19 03:50:51;;;;;;;71.23;28.40;;;;;;;;;;731874;188;915475;-70
2021/01/19 03:53:17;;;;;;;56.30;26.67;;;;;;;;;;736609;188;915715;-70
2021/01/19 03:55:43;;;;;;;49.30;25.00;;;;;;;;;;736551;188;915340;-70
2021/01/19 03:58:09;;;;;;;53.67;26.37;;;;;;;;;;732488;188;921611;-71
2021/01/19 04:00:35;;;;;;;68.30;29.43;;;;;;;;;;738864;188;918641;-70
2021/01/19 04:03:01;;;;;;;60.10;28.23;;;;;;;;;;732772;188;1052554;-71
2021/01/19 04:05:27;;;;;;;54.73;26.50;;;;;;;;;;736442;188;919293;-71
2021/01/19 04:07:52;;;;;;;54.47;26.93;;;;;;;;;;736240;188;918706;-70
2021/01/19 04:10:18;;;;;;;69.47;28.50;;;;;;;;;;729635;187;919299;-70
2021/01/19 04:12:44;;;;;;;64.03;28.57;;;;;;;;;;738168;188;918148;-70
2021/01/19 04:15:10;;;;;;;52.57;26.83;;;;;;;;;;733490;188;1008925;-69
2021/01/19 04:17:36;;;;;;;56.30;27.90;;;;;;;;;;730924;189;919306;-70
2021/01/19 04:20:02;;;;;;;59.33;30.13;;;;;;;;;;731624;189;919070;-70
2021/01/19 04:22:28;;;;;;;56.57;28.90;;;;;;;;;;730750;187;1029382;-71
2021/01/19 04:24:54;;;;;;;55.87;25.07;;;;;;;;;;736189;188;1054861;-69
2021/01/19 04:27:20;;;;;;;63.17;27.30;;;;;;;;;;731302;188;864370;-69
2021/01/19 04:29:46;;;;;;;63.70;29.27;;;;;;;;;;728181;189;918658;-70
2021/01/19 04:32:11;;;;;;;58.13;30.80;;;;;;;;;;740305;188;919074;-70
2021/01/19 04:34:37;;;;;;;68.80;29.37;;;;;;;;;;734158;188;919000;-70
2021/01/19 04:37:03;;;;;;;54.03;28.90;;;;;;;;;;733445;188;987822;-70
2021/01/19 04:39:29;;;;;;;69.68;30.17;;;;;;;;;;737031;188;918981;-70
2021/01/19 04:41:55;;;;;;;60.00;26.13;;;;;;;;;;734853;188;921619;-70
2021/01/19 04:44:21;;;;;;;73.73;27.20;;;;;;;;;;733231;188;967752;-70
2021/01/19 04:46:47;;;;;;;53.73;28.20;;;;;;;;;;734560;188;918523;-71
2021/01/19 04:49:15;;;;;;;67.10;31.67;;;;;;;;;;722208;190;911925;-70
2021/01/19 04:51:41;;;;;;;65.63;27.87;;;;;;;;;;716086;193;915889;-70
2021/01/19 04:54:07;;;;;;;54.27;27.17;;;;;;;;;;717455;193;916532;-71
2021/01/19 04:56:33;;;;;;;51.60;24.27;;;;;;;;;;720152;192;926435;-70
2021/01/19 04:58:59;;;;;;;57.10;26.23;;;;;;;;;;721559;192;919702;-71
2021/01/19 05:01:42;;;;;;;57.13;25.50;;;;;;;;;;714331;192;920076;-71
2021/01/19 05:04:31;;;;;;;59.33;29.10;;;;;;;;;;700569;196;918345;-70
2021/01/19 05:07:15;;;;;;;56.73;26.27;;;;;;;;;;731087;189;913852;-71
2021/01/19 05:09:41;;;;;;;52.90;26.40;;;;;;;;;;731171;187;918585;-71
2021/01/19 05:12:06;;;;;;;50.30;26.07;;;;;;;;;;732141;188;918498;-70
2021/01/19 05:14:37;;;;;;;51.40;28.53;;;;;;;;;;738880;188;918859;-71
2021/01/19 05:17:03;;;;;;;54.47;28.10;;;;;;;;;;729811;188;921580;-70
2021/01/19 05:19:29;;;;;;;59.80;30.97;;;;;;;;;;732783;188;918993;-69
2021/01/19 05:21:55;;;;;;;54.53;28.43;;;;;;;;;;736661;186;919389;-70
2021/01/19 05:24:21;;;;;;;56.70;27.67;;;;;;;;;;736499;188;917676;-70
2021/01/19 05:26:46;;;;;;;55.83;26.47;;;;;;;;;;734729;188;917889;-70
2021/01/19 05:29:12;;;;;;;57.97;28.30;;;;;;;;;;735926;188;919764;-70
2021/01/19 05:31:38;;;;;;;58.17;28.73;;;;;;;;;;731177;190;915566;-71
2021/01/19 05:34:08;;;;;;;64.57;28.80;;;;;;;;;;733638;189;915927;-70
2021/01/19 05:36:34;;;;;;;60.88;28.98;;;;;;;;;;731814;188;927695;-71
2021/01/19 05:39:00;;;;;;;64.60;27.87;;;;;;;;;;737814;188;919702;-70
2021/01/19 05:41:27;;;;;;;56.47;28.97;;;;;;;;;;730071;188;918661;-70
2021/01/19 05:43:54;;;;;;;59.90;28.53;;;;;;;;;;734653;188;919505;-70
2021/01/19 05:46:26;;;;;;;70.12;30.60;;;;;;;;;;733182;188;918325;-68
2021/01/19 05:48:53;;;;;;;57.47;28.03;;;;;;;;;;734601;188;815967;-71
2021/01/19 05:51:18;;;;;;;64.60;26.63;;;;;;;;;;730321;188;918144;-70
2021/01/19 05:53:44;;;;;;;53.73;26.10;;;;;;;;;;728923;188;1192918;-70
2021/01/19 05:56:10;;;;;;;59.67;28.27;;;;;;;;;;737849;188;919018;-70
2021/01/19 05:58:36;;;;;;;53.83;26.23;;;;;;;;;;730738;188;918822;-70
2021/01/19 06:01:02;;;;;;;60.30;27.87;;;;;;;;;;733717;188;918171;-70
2021/01/19 06:03:28;;;;;;;58.55;26.60;;;;;;;;;;733582;188;918646;-70
2021/01/19 06:05:53;;;;;;;60.90;27.50;;;;;;;;;;736498;188;918906;-70
2021/01/19 06:08:19;;;;;;;68.00;31.60;;;;;;;;;;733150;188;919016;-71
2021/01/19 06:10:45;;;;;;;62.40;27.87;;;;;;;;;;733804;188;919428;-70
2021/01/19 06:13:13;;;;;;;58.10;29.57;;;;;;;;;;734777;188;999437;-71
2021/01/19 06:15:40;;;;;;;53.22;24.63;;;;;;;;;;734900;188;918540;-70
2021/01/19 06:18:05;;;;;;;62.33;29.57;;;;;;;;;;730736;188;919049;-70
2021/01/19 06:20:31;;;;;;;58.10;29.25;;;;;;;;;;736402;189;918018;-70
2021/01/19 06:23:02;;;;;;;74.90;27.17;;;;;;;;;;729398;188;918179;-71
2021/01/19 06:25:28;;;;;;;57.47;25.57;;;;;;;;;;730295;188;920078;-72
2021/01/19 06:27:54;;;;;;;44.93;24.73;;;;;;;;;;731928;188;921565;-70
2021/01/19 06:30:21;;;;;;;47.80;21.87;;;;;;;;;;737742;188;917995;-71
2021/01/19 06:32:46;;;;;;;53.97;24.83;;;;;;;;;;734716;186;919799;-71
2021/01/19 06:35:15;;;;;;;51.10;25.60;;;;;;;;;;738732;187;919494;-71
2021/01/19 06:37:40;;;;;;;49.93;26.10;;;;;;;;;;738568;188;919375;-71
2021/01/19 06:40:07;;;;;;;50.03;25.50;;;;;;;;;;732915;188;919194;-70
2021/01/19 06:42:33;;;;;;;52.17;24.90;;;;;;;;;;734104;188;947596;-71
2021/01/19 06:44:59;;;;;;;47.93;26.60;;;;;;;;;;739444;188;912967;-70
2021/01/19 06:47:24;;;;;;;49.00;26.53;;;;;;;;;;738897;188;916196;-70
2021/01/19 06:49:50;;;;;;;54.73;25.37;;;;;;;;;;733844;188;1011802;-70
2021/01/19 06:52:16;;;;;;;45.57;24.20;;;;;;;;;;734038;188;918640;-70
2021/01/19 06:54:48;;;;;;;51.90;24.23;;;;;;;;;;737264;187;918396;-70
2021/01/19 06:57:14;;;;;;;51.63;24.13;;;;;;;;;;733734;189;910748;-71
2021/01/19 06:59:39;;;;;;;68.43;26.65;;;;;;;;;;730352;189;918994;-70
2021/01/19 07:02:05;;;;;;;52.97;25.80;;;;;;;;;;738111;190;918966;-71
2021/01/19 07:04:34;;;;;;;43.80;24.17;;;;;;;;;;731695;188;919035;-71
2021/01/19 07:07:06;;;;;;;51.87;24.20;;;;;;;;;;732600;190;920464;-70
2021/01/19 07:09:33;;;;;;;55.03;27.90;;;;;;;;;;728928;188;919200;-71
2021/01/19 07:12:03;;;;;;;52.07;26.47;;;;;;;;;;733078;188;1120902;-71
2021/01/19 07:14:32;;;;;;;66.90;32.07;;;;;;;;;;731638;188;920046;-71
2021/01/19 07:16:58;;;;;;;58.57;30.40;;;;;;;;;;726659;189;919741;-70
2021/01/19 07:19:40;;;;;;;64.50;26.50;;;;;;;;;;734500;188;918629;-69
2021/01/19 07:22:05;;;;;;;52.72;24.63;;;;;;;;;;729714;190;947103;-71
2021/01/19 07:24:39;;;;;;;62.63;26.27;;;;;;;;;;737724;188;886519;-71
2021/01/19 07:27:05;;;;;;;47.00;25.50;;;;;;;;;;727338;188;919175;-71
2021/01/19 07:29:31;;;;;;;56.37;24.42;;;;;;;;;;733991;188;919011;-71
2021/01/19 07:31:56;;;;;;;57.23;25.67;;;;;;;;;;731912;188;918744;-70
2021/01/19 07:34:22;;;;;;;44.70;25.27;;;;;;;;;;733754;190;919158;-71
2021/01/19 07:36:52;;;;;;;47.47;24.10;;;;;;;;;;732499;188;925925;-71
2021/01/19 07:39:20;;;;;;;45.87;22.00;;;;;;;;;;730255;188;918365;-71
2021/01/19 07:41:44;;;;;;;54.20;23.87;;;;;;;;;;739733;188;918947;-71
2021/01/19 07:44:09;;;;;;;40.97;19.57;;;;;;;;;;733706;189;906131;-71
2021/01/19 07:46:35;;;;;;;46.07;22.50;;;;;;;;;;736023;187;919277;-72
2021/01/19 07:49:01;;;;;;;45.30;22.60;;;;;;;;;;740062;188;1226392;-70
2021/01/19 07:51:27;;;;;;;46.60;23.63;;;;;;;;;;731596;188;918986;-71
2021/01/19 07:53:53;;;;;;;39.07;21.43;;;;;;;;;;730515;188;918850;-71
2021/01/19 07:56:22;;;;;;;40.67;20.87;;;;;;;;;;727178;188;1020749;-70
2021/01/19 07:58:48;;;;;;;47.03;22.60;;;;;;;;;;728360;191;918835;-72
2021/01/19 08:01:14;;;;;;;44.43;22.23;;;;;;;;;;733471;188;936159;-71
2021/01/19 08:03:41;;;;;;;42.30;20.13;;;;;;;;;;729122;188;1013955;-71
2021/01/19 08:06:07;;;;;;;38.23;22.03;;;;;;;;;;739876;188;918274;-72
2021/01/19 08:08:32;;;;;;;35.40;20.00;;;;;;;;;;734896;188;919178;-72
2021/01/19 08:10:58;;;;;;;40.90;21.80;;;;;;;;;;735246;189;937993;-72
2021/01/19 08:13:25;;;;;;;40.60;20.77;;;;;;;;;;736576;188;918977;-71
2021/01/19 08:15:56;;;;;;;44.97;23.40;;;;;;;;;;732516;188;918832;-71
2021/01/19 08:18:22;;;;;;;39.40;19.30;;;;;;;;;;731655;187;927145;-73
2021/01/19 08:20:48;;;;;;;44.60;18.95;;;;;;;;;;731795;188;918938;-72
2021/01/19 08:23:15;;;;;;;40.50;21.30;;;;;;;;;;733222;188;1111313;-71
2021/01/19 08:25:40;;;;;;;42.80;19.63;;;;;;;;;;734819;188;917384;-72
2021/01/19 08:28:06;;;;;;;44.83;20.05;;;;;;;;;;730746;188;918900;-72
2021/01/19 08:30:32;;;;;;;45.93;22.50;;;;;;;;;;738951;188;919087;-72
2021/01/19 08:32:58;;;;;;;40.70;21.70;;;;;;;;;;733247;188;919237;-72
2021/01/19 08:35:24;;;;;;;34.97;19.93;;;;;;;;;;733003;188;916501;-72
2021/01/19 08:37:50;;;;;;;40.67;21.10;;;;;;;;;;733337;188;921641;-72
2021/01/19 08:40:20;;;;;;;46.10;22.07;;;;;;;;;;732424;187;918193;-72
2021/01/19 08:42:45;;;;;;;30.07;15.97;;;;;;;;;;740293;188;630319;-72
2021/01/19 08:45:12;;;;;;;36.67;17.25;;;;;;;;;;733558;188;918865;-73
2021/01/19 08:47:39;;;;;;;32.83;18.60;;;;;;;;;;739876;188;673788;-72
2021/01/19 08:50:04;;;;;;;44.80;21.13;;;;;;;;;;734490;188;629245;-73
2021/01/19 08:52:30;;;;;;;38.90;20.00;;;;;;;;;;739096;190;631922;-73
2021/01/19 08:54:56;;;;;;;36.93;21.10;;;;;;;;;;741538;188;656958;-73
2021/01/19 08:57:22;;;;;;;39.43;24.70;;;;;;;;;;740561;187;630960;-74
2021/01/19 08:59:50;;;;;;;52.83;24.57;;;;;;;;;;736939;187;920942;-73
2021/01/19 09:02:16;;;;;;;40.10;22.57;;;;;;;;;;734999;188;986279;-72
2021/01/19 09:04:42;;;;;;;37.87;21.87;;;;;;;;;;736988;188;918712;-73
2021/01/19 09:07:08;;;;;;;35.93;19.30;;;;;;;;;;730274;188;919548;-74
2021/01/19 09:09:34;;;;;;;35.80;18.90;;;;;;;;;;735461;188;930565;-73
2021/01/19 09:12:00;;;;;;;33.00;18.83;;;;;;;;;;740528;189;916043;-74
2021/01/19 09:14:29;;;;;;;30.80;16.93;;;;;;;;;;733363;188;915405;-72
2021/01/19 09:16:55;;;;;;;35.17;20.13;;;;;;;;;;724348;188;918917;-72
2021/01/19 09:19:21;;;;;;;40.20;20.57;;;;;;;;;;733744;188;919328;-73
2021/01/19 09:21:47;;;;;;;30.27;18.13;;;;;;;;;;731623;187;918966;-73
2021/01/19 09:24:13;;;;;;;32.13;16.03;;;;;;;;;;733916;188;918911;-73
2021/01/19 09:26:55;;;;;;;32.03;16.00;;;;;;;;;;732977;188;918875;-72
2021/01/19 09:29:05;;;;;;;29.20;15.20;;;;;;;;;;738598;188;913507;-72
2021/01/19 09:31:30;;;;;;;30.57;17.40;;;;;;;;;;722878;188;919196;-71
2021/01/19 09:33:56;;;;;;;30.90;16.40;;;;;;;;;;730129;190;919499;-72
2021/01/19 09:36:22;;;;;;;31.97;18.70;;;;;;;;;;734264;188;919441;-73
2021/01/19 09:38:49;;;;;;;27.27;17.93;;;;;;;;;;731182;188;917934;-72
2021/01/19 09:41:15;;;;;;;27.20;14.20;;;;;;;;;;732263;188;918499;-70
2021/01/19 09:43:41;;;;;;;29.52;15.38;;;;;;;;;;738434;188;918632;-69
2021/01/19 09:46:07;;;;;;;26.10;15.30;;;;;;;;;;732857;190;918587;-70
2021/01/19 09:48:33;;;;;;;26.33;14.90;;;;;;;;;;731167;189;918255;-71
2021/01/19 09:50:59;;;;;;;25.93;15.43;;;;;;;;;;731281;188;955474;-70
2021/01/19 09:53:25;;;;;;;29.17;14.20;;;;;;;;;;740684;187;918928;-70
2021/01/19 09:55:51;;;;;;;28.33;15.93;;;;;;;;;;735549;188;918727;-69
2021/01/19 09:58:17;;;;;;;24.80;13.90;;;;;;;;;;730817;188;919247;-70
2021/01/19 10:00:42;;;;;;;27.17;14.10;;;;;;;;;;739402;188;918395;-70
2021/01/19 10:03:08;;;;;;;22.17;13.23;;;;;;;;;;731869;188;918959;-70
2021/01/19 10:05:34;;;;;;;24.00;14.98;;;;;;;;;;733503;190;918392;-70
2021/01/19 10:08:00;;;;;;;19.73;13.40;;;;;;;;;;739810;187;903157;-70
2021/01/19 10:10:26;;;;;;;25.97;13.90;;;;;;;;;;731409;188;918799;-69
2021/01/19 10:12:52;;;;;;;23.35;14.43;;;;;;;;;;727928;188;1256568;-68
2021/01/19 10:15:17;;;;;;;18.77;11.77;;;;;;;;;;736123;188;918918;-68
2021/01/19 10:17:43;;;;;;;21.70;12.77;;;;;;;;;;731270;189;914751;-68
2021/01/19 10:20:10;;;;;;;20.80;13.67;;;;;;;;;;735357;188;912205;-69
2021/01/19 10:22:36;;;;;;;21.35;10.70;;;;;;;;;;733150;188;916358;-67
2021/01/19 10:25:06;;;;;;;22.40;12.57;;;;;;;;;;742305;188;917370;-68
2021/01/19 10:27:29;;;;;;;20.53;12.30;;;;;;;;;;727907;188;919631;-66
2021/01/19 10:29:54;;;;;;;17.15;13.30;;;;;;;;;;731686;188;927495;-68
2021/01/19 10:32:20;;;;;;;22.70;13.10;;;;;;;;;;739715;188;918874;-67
2021/01/19 10:34:46;;;;;;;20.07;12.57;;;;;;;;;;732057;187;916390;-69
2021/01/19 10:37:12;;;;;;;16.90;11.02;;;;;;;;;;733290;188;915206;-69
2021/01/19 10:39:43;;;;;;;17.03;10.57;;;;;;;;;;737889;188;919294;-68
2021/01/19 10:42:10;;;;;;;17.43;10.60;;;;;;;;;;736462;187;918221;-69
2021/01/19 10:44:39;;;;;;;16.67;11.47;;;;;;;;;;731841;188;919192;-68
2021/01/19 10:47:04;;;;;;;16.93;9.80;;;;;;;;;;733788;188;940718;-68
2021/01/19 10:49:30;;;;;;;14.97;9.27;;;;;;;;;;736716;188;918892;-68
2021/01/19 10:51:55;;;;;;;20.30;11.85;;;;;;;;;;735434;188;921175;-68
2021/01/19 10:54:22;;;;;;;20.20;13.30;;;;;;;;;;730843;188;918548;-69
2021/01/19 10:56:47;;;;;;;21.60;13.30;;;;;;;;;;739142;188;919396;-69
2021/01/19 10:59:13;;;;;;;26.50;13.70;;;;;;;;;;727229;187;918613;-69
2021/01/19 11:01:39;;;;;;;17.80;12.37;;;;;;;;;;729019;190;919444;-69
2021/01/19 11:04:05;;;;;;;22.23;12.87;;;;;;;;;;728048;188;919530;-69
2021/01/19 11:06:31;;;;;;;19.50;12.27;;;;;;;;;;739152;188;919905;-69
2021/01/19 11:08:57;;;;;;;19.47;11.33;;;;;;;;;;732249;188;917907;-68
2021/01/19 11:11:23;;;;;;;17.13;11.27;;;;;;;;;;732853;188;918620;-68
2021/01/19 11:13:49;;;;;;;19.45;11.63;;;;;;;;;;738399;188;918315;-68
2021/01/19 11:16:14;;;;;;;21.37;11.70;;;;;;;;;;731856;188;919100;-68
2021/01/19 11:18:40;;;;;;;20.37;11.60;;;;;;;;;;734995;188;918600;-67
2021/01/19 11:21:06;;;;;;;24.50;12.63;;;;;;;;;;735272;187;1295579;-67
2021/01/19 11:23:32;;;;;;;17.77;10.80;;;;;;;;;;728159;188;918273;-69
2021/01/19 11:25:58;;;;;;;11.98;9.40;;;;;;;;;;731497;188;1019160;-67
2021/01/19 11:28:24;;;;;;;14.73;9.05;;;;;;;;;;734955;188;1023984;-66
2021/01/19 11:30:51;;;;;;;14.87;10.37;;;;;;;;;;734249;190;907964;-67
2021/01/19 11:33:16;;;;;;;13.43;9.60;;;;;;;;;;735161;188;920299;-68
2021/01/19 11:35:42;;;;;;;14.00;9.03;;;;;;;;;;731709;188;917625;-66
2021/01/19 11:38:07;;;;;;;13.07;9.73;;;;;;;;;;743590;188;918837;-67
2021/01/19 11:40:33;;;;;;;13.57;10.05;;;;;;;;;;734560;187;918965;-68
2021/01/19 11:42:59;;;;;;;15.10;9.07;;;;;;;;;;734871;188;920616;-67
2021/01/19 11:45:27;;;;;;;17.27;10.93;;;;;;;;;;736648;188;921648;-67
2021/01/19 11:47:51;;;;;;;20.70;10.87;;;;;;;;;;734744;188;920436;-66
2021/01/19 11:50:17;;;;;;;16.45;9.05;;;;;;;;;;731421;189;919759;-67
2021/01/19 11:52:43;;;;;;;15.20;9.33;;;;;;;;;;734642;188;921468;-66
2021/01/19 11:55:08;;;;;;;14.53;9.63;;;;;;;;;;735509;187;915907;-67
2021/01/19 11:57:34;;;;;;;14.85;8.90;;;;;;;;;;735636;188;919002;-67
2021/01/19 12:00:00;;;;;;;17.40;10.00;;;;;;;;;;733064;188;1003049;-66
2021/01/19 12:02:26;;;;;;;14.47;8.53;;;;;;;;;;726284;188;909630;-66
2021/01/19 12:04:52;;;;;;;17.53;9.67;;;;;;;;;;733135;188;916226;-67
2021/01/19 12:07:18;;;;;;;15.53;10.27;;;;;;;;;;731033;188;1115720;-67
2021/01/19 12:09:45;;;;;;;18.17;10.77;;;;;;;;;;737533;188;915451;-67
2021/01/19 12:12:09;;;;;;;14.70;9.50;;;;;;;;;;735696;186;915115;-66
2021/01/19 12:14:35;;;;;;;20.50;10.23;;;;;;;;;;734212;188;915237;-67
2021/01/19 12:17:02;;;;;;;16.10;10.20;;;;;;;;;;736201;188;914511;-67
2021/01/19 12:19:27;;;;;;;18.13;10.93;;;;;;;;;;734594;188;924193;-66
2021/01/19 12:21:53;;;;;;;19.73;11.10;;;;;;;;;;731368;188;916102;-68
2021/01/19 12:24:19;;;;;;;15.40;9.80;;;;;;;;;;740180;188;915798;-68
2021/01/19 12:26:45;;;;;;;17.97;11.13;;;;;;;;;;732198;190;915654;-67
2021/01/19 12:29:10;;;;;;;16.27;9.45;;;;;;;;;;728945;188;915524;-67
2021/01/19 12:31:36;;;;;;;15.80;10.37;;;;;;;;;;735106;187;915289;-66
2021/01/19 12:34:02;;;;;;;21.07;8.90;;;;;;;;;;736030;187;919264;-65
2021/01/19 12:36:28;;;;;;;14.90;8.83;;;;;;;;;;735384;188;919242;-66
2021/01/19 12:38:54;;;;;;;16.15;8.82;;;;;;;;;;731577;188;918962;-66
2021/01/19 12:41:20;;;;;;;11.83;8.47;;;;;;;;;;738705;188;919294;-66
2021/01/19 12:43:45;;;;;;;25.97;9.30;;;;;;;;;;729477;188;919007;-65
2021/01/19 12:46:11;;;;;;;17.40;11.73;;;;;;;;;;734745;188;920057;-68
2021/01/19 12:48:37;;;;;;;22.50;12.40;;;;;;;;;;739945;188;914284;-68
2021/01/19 12:51:03;;;;;;;22.85;11.90;;;;;;;;;;736879;188;913711;-68
2021/01/19 12:53:29;;;;;;;18.43;10.00;;;;;;;;;;732510;188;919312;-68
2021/01/19 12:55:55;;;;;;;16.40;11.03;;;;;;;;;;736763;188;911816;-68
2021/01/19 12:58:20;;;;;;;16.43;9.37;;;;;;;;;;732716;188;919307;-67
2021/01/19 13:00:46;;;;;;;13.33;9.07;;;;;;;;;;733575;188;912870;-68
2021/01/19 13:03:12;;;;;;;14.23;10.07;;;;;;;;;;733746;187;912797;-66
2021/01/19 13:05:38;;;;;;;12.70;9.77;;;;;;;;;;732137;190;918880;-67
2021/01/19 13:08:04;;;;;;;16.53;10.40;;;;;;;;;;734663;188;935421;-66
2021/01/19 13:10:30;;;;;;;16.03;10.17;;;;;;;;;;730776;188;1013084;-66
2021/01/19 13:12:56;;;;;;;12.80;9.07;;;;;;;;;;738237;188;918942;-66
2021/01/19 13:15:22;;;;;;;13.97;9.47;;;;;;;;;;734127;188;917782;-67
2021/01/19 13:17:48;;;;;;;15.87;9.90;;;;;;;;;;735002;188;918716;-66
2021/01/19 13:20:13;;;;;;;21.60;8.95;;;;;;;;;;737238;188;919387;-67
2021/01/19 13:22:39;;;;;;;16.97;10.13;;;;;;;;;;734248;188;917812;-66
2021/01/19 13:25:06;;;;;;;14.07;8.33;;;;;;;;;;732004;188;918099;-66
2021/01/19 13:27:32;;;;;;;13.80;9.30;;;;;;;;;;739011;188;921788;-65
2021/01/19 13:29:57;;;;;;;16.97;8.33;;;;;;;;;;731590;188;924038;-66
2021/01/19 13:32:23;;;;;;;10.30;7.80;;;;;;;;;;729520;188;918580;-66
2021/01/19 13:34:49;;;;;;;11.07;7.10;;;;;;;;;;728649;188;918487;-66
2021/01/19 13:37:15;;;;;;;10.90;7.27;;;;;;;;;;731887;188;919303;-67
2021/01/19 13:39:42;;;;;;;10.60;6.77;;;;;;;;;;734586;188;918474;-66
2021/01/19 13:42:08;;;;;;;11.63;6.80;;;;;;;;;;735745;188;918676;-66
2021/01/19 13:44:33;;;;;;;10.67;7.30;;;;;;;;;;739193;188;1025664;-66
2021/01/19 13:46:59;;;;;;;10.73;7.17;;;;;;;;;;733155;187;919231;-67
2021/01/19 13:49:25;;;;;;;12.70;8.23;;;;;;;;;;737601;188;914748;-65
2021/01/19 13:51:51;;;;;;;19.30;9.20;;;;;;;;;;737300;188;1417450;-66
2021/01/19 13:54:17;;;;;;;12.02;8.05;;;;;;;;;;736869;188;915860;-67
2021/01/19 13:56:43;;;;;;;15.80;8.93;;;;;;;;;;732480;189;913205;-65
2021/01/19 13:59:08;;;;;;;14.10;9.70;;;;;;;;;;737624;188;907353;-66
2021/01/19 14:01:37;;;;;;;15.00;8.40;;;;;;;;;;731672;188;925731;-66